createdAt,value
2017-06-14T00:00:57.870Z,1020.29
2017-06-14T00:02:06.757Z,1020.31
2017-06-14T00:03:15.642Z,1020.3
2017-06-14T00:04:24.528Z,1020.29
2017-06-14T00:05:34.064Z,1020.31
2017-06-14T00:06:43.423Z,1020.34
2017-06-14T00:07:52.307Z,1020.27
2017-06-14T00:09:01.515Z,1020.25
2017-06-14T00:10:10.725Z,1020.28
2017-06-14T00:11:19.620Z,1020.26
2017-06-14T00:12:28.502Z,1020.24
2017-06-14T00:13:38.036Z,1020.23
2017-06-14T00:14:46.925Z,1020.17
2017-06-14T00:15:55.813Z,1020.15
2017-06-14T00:17:05.028Z,1020.16
2017-06-14T00:18:14.072Z,1020.2
2017-06-14T00:19:22.965Z,1020.2
2017-06-14T00:20:32.174Z,1020.2
2017-06-14T00:21:41.059Z,1020.24
2017-06-14T00:22:50.592Z,1020.25
2017-06-14T00:23:59.777Z,1020.26
2017-06-14T00:25:08.664Z,1020.27
2017-06-14T00:26:17.546Z,1020.25
2017-06-14T00:27:27.083Z,1020.31
2017-06-14T00:28:35.966Z,1020.31
2017-06-14T00:29:45.228Z,1020.26
2017-06-14T00:30:54.116Z,1020.27
2017-06-14T00:32:03.019Z,1020.29
2017-06-14T00:33:11.907Z,1020.28
2017-06-14T00:34:21.463Z,1020.31
2017-06-14T00:35:30.730Z,1020.29
2017-06-14T00:36:39.938Z,1020.31
2017-06-14T00:37:48.825Z,1020.33
2017-06-14T00:38:58.355Z,1020.29
2017-06-14T00:40:07.241Z,1020.26
2017-06-14T00:41:16.277Z,1020.3
2017-06-14T00:42:25.492Z,1020.33
2017-06-14T00:43:34.706Z,1020.33
2017-06-14T00:44:43.918Z,1020.34
2017-06-14T00:45:52.802Z,1020.32
2017-06-14T00:47:02.162Z,1020.39
2017-06-14T00:48:11.743Z,1020.36
2017-06-14T00:49:20.630Z,1020.37
2017-06-14T00:50:29.520Z,1020.36
2017-06-14T00:51:38.734Z,1020.33
2017-06-14T00:52:48.040Z,1020.37
2017-06-14T00:53:56.921Z,1020.43
2017-06-14T00:55:06.459Z,1020.41
2017-06-14T00:56:15.668Z,1020.43
2017-06-14T00:57:24.552Z,1020.41
2017-06-14T00:58:34.753Z,1020.44
2017-06-14T00:59:43.645Z,1020.47
2017-06-14T01:00:52.537Z,1020.48
2017-06-14T01:02:01.424Z,1020.44
2017-06-14T01:03:10.637Z,1020.42
2017-06-14T01:04:19.851Z,1020.42
2017-06-14T01:05:29.065Z,1020.46
2017-06-14T01:06:37.953Z,1020.5
2017-06-14T01:07:47.164Z,1020.53
2017-06-14T01:08:56.052Z,1020.5
2017-06-14T01:10:05.272Z,1020.46
2017-06-14T01:11:14.166Z,1020.54
2017-06-14T01:12:23.058Z,1020.49
2017-06-14T01:13:31.945Z,1020.49
2017-06-14T01:14:41.153Z,1020.5
2017-06-14T01:15:50.186Z,1020.49
2017-06-14T01:16:59.399Z,1020.53
2017-06-14T01:18:08.287Z,1020.53
2017-06-14T01:19:17.173Z,1020.58
2017-06-14T01:20:26.389Z,1020.58
2017-06-14T01:21:35.423Z,1020.61
2017-06-14T01:22:44.311Z,1020.61
2017-06-14T01:23:53.850Z,1020.59
2017-06-14T01:25:02.737Z,1020.6
2017-06-14T01:26:11.628Z,1020.61
2017-06-14T01:27:21.263Z,1020.61
2017-06-14T01:28:30.474Z,1020.64
2017-06-14T01:29:39.359Z,1020.63
2017-06-14T01:30:48.894Z,1020.61
2017-06-14T01:31:58.114Z,1020.6
2017-06-14T01:33:07.473Z,1020.66
2017-06-14T01:34:16.358Z,1020.66
2017-06-14T01:35:25.247Z,1020.67
2017-06-14T01:36:34.133Z,1020.73
2017-06-14T01:37:43.343Z,1020.74
2017-06-14T01:38:52.704Z,1020.78
2017-06-14T01:40:01.920Z,1020.82
2017-06-14T01:41:11.135Z,1020.78
2017-06-14T01:42:20.018Z,1020.83
2017-06-14T01:43:28.909Z,1020.84
2017-06-14T01:44:38.444Z,1020.84
2017-06-14T01:45:47.982Z,1020.89
2017-06-14T01:46:56.867Z,1020.88
2017-06-14T01:48:05.753Z,1020.9
2017-06-14T01:49:14.965Z,1020.89
2017-06-14T01:50:23.907Z,1020.87
2017-06-14T01:51:33.121Z,1020.91
2017-06-14T01:52:42.333Z,1020.9
2017-06-14T01:53:51.219Z,1020.84
2017-06-14T01:55:00.137Z,1020.86
2017-06-14T01:56:09.082Z,1020.83
2017-06-14T01:57:18.290Z,1020.82
2017-06-14T01:58:27.181Z,1020.77
2017-06-14T01:59:36.395Z,1020.77
2017-06-14T02:00:45.601Z,1020.77
2017-06-14T02:01:54.488Z,1020.69
2017-06-14T02:03:03.370Z,1020.68
2017-06-14T02:04:12.257Z,1020.69
2017-06-14T02:05:21.142Z,1020.65
2017-06-14T02:06:30.027Z,1020.68
2017-06-14T02:07:39.211Z,1020.69
2017-06-14T02:08:48.093Z,1020.68
2017-06-14T02:09:56.976Z,1020.68
2017-06-14T02:11:06.196Z,1020.69
2017-06-14T02:12:15.411Z,1020.65
2017-06-14T02:13:24.497Z,1020.71
2017-06-14T02:14:33.382Z,1020.72
2017-06-14T02:15:42.596Z,1020.73
2017-06-14T02:16:51.807Z,1020.81
2017-06-14T02:18:00.688Z,1020.81
2017-06-14T02:19:10.377Z,1020.79
2017-06-14T02:20:19.590Z,1020.79
2017-06-14T02:21:28.476Z,1020.85
2017-06-14T02:22:37.363Z,1020.83
2017-06-14T02:23:46.251Z,1020.76
2017-06-14T02:24:55.193Z,1020.73
2017-06-14T02:26:04.082Z,1020.73
2017-06-14T02:27:13.293Z,1020.76
2017-06-14T02:28:22.178Z,1020.72
2017-06-14T02:29:31.068Z,1020.76
2017-06-14T02:30:40.579Z,1020.68
2017-06-14T02:31:50.758Z,1020.71
2017-06-14T02:32:59.646Z,1020.69
2017-06-14T02:34:08.535Z,1020.67
2017-06-14T02:35:18.071Z,1020.7
2017-06-14T02:36:27.059Z,1020.69
2017-06-14T02:37:36.264Z,1020.72
2017-06-14T02:38:45.478Z,1020.7
2017-06-14T02:39:54.686Z,1020.66
2017-06-14T02:41:03.896Z,1020.75
2017-06-14T02:42:12.881Z,1020.78
2017-06-14T02:43:21.768Z,1020.81
2017-06-14T02:44:30.977Z,1020.74
2017-06-14T02:45:40.509Z,1020.76
2017-06-14T02:46:49.393Z,1020.78
2017-06-14T02:47:58.755Z,1020.79
2017-06-14T02:49:07.643Z,1020.79
2017-06-14T02:50:16.867Z,1020.8
2017-06-14T02:51:26.077Z,1020.82
2017-06-14T02:52:35.283Z,1020.82
2017-06-14T02:53:44.496Z,1020.83
2017-06-14T02:54:54.031Z,1020.82
2017-06-14T02:56:02.972Z,1020.84
2017-06-14T02:57:11.859Z,1020.86
2017-06-14T02:58:21.413Z,1020.85
2017-06-14T02:59:31.099Z,1020.87
2017-06-14T03:00:40.632Z,1020.83
2017-06-14T03:01:49.843Z,1020.79
2017-06-14T03:02:59.054Z,1020.85
2017-06-14T03:04:08.262Z,1020.8
2017-06-14T03:05:17.896Z,1020.8
2017-06-14T03:06:26.780Z,1020.83
2017-06-14T03:07:35.665Z,1020.77
2017-06-14T03:08:44.876Z,1020.78
2017-06-14T03:09:53.762Z,1020.81
2017-06-14T03:11:03.026Z,1020.8
2017-06-14T03:12:11.913Z,1020.82
2017-06-14T03:13:21.147Z,1020.81
2017-06-14T03:14:30.035Z,1020.82
2017-06-14T03:15:39.244Z,1020.79
2017-06-14T03:16:48.129Z,1020.76
2017-06-14T03:17:57.338Z,1020.79
2017-06-14T03:19:06.221Z,1020.74
2017-06-14T03:20:15.106Z,1020.76
2017-06-14T03:21:23.992Z,1020.77
2017-06-14T03:22:33.301Z,1020.83
2017-06-14T03:23:42.187Z,1020.84
2017-06-14T03:24:51.398Z,1020.84
2017-06-14T03:26:00.935Z,1020.83
2017-06-14T03:27:09.826Z,1020.86
2017-06-14T03:28:18.808Z,1020.82
2017-06-14T03:29:27.694Z,1020.87
2017-06-14T03:30:36.901Z,1020.84
2017-06-14T03:31:45.782Z,1020.85
2017-06-14T03:32:54.667Z,1020.87
2017-06-14T03:34:04.029Z,1020.83
2017-06-14T03:35:12.930Z,1020.84
2017-06-14T03:36:21.815Z,1020.9
2017-06-14T03:37:30.701Z,1020.89
2017-06-14T03:38:39.632Z,1020.94
2017-06-14T03:39:48.685Z,1020.94
2017-06-14T03:40:58.217Z,1020.97
2017-06-14T03:42:07.430Z,1020.93
2017-06-14T03:43:16.315Z,1020.92
2017-06-14T03:44:25.199Z,1020.87
2017-06-14T03:45:34.556Z,1020.9
2017-06-14T03:46:43.770Z,1020.91
2017-06-14T03:47:52.656Z,1020.93
2017-06-14T03:49:01.546Z,1020.86
2017-06-14T03:50:10.432Z,1020.85
2017-06-14T03:51:19.367Z,1020.85
2017-06-14T03:52:28.257Z,1020.83
2017-06-14T03:53:37.141Z,1020.9
2017-06-14T03:54:46.026Z,1020.86
2017-06-14T03:55:54.908Z,1020.91
2017-06-14T03:57:04.319Z,1020.92
2017-06-14T03:58:13.200Z,1020.9
2017-06-14T03:59:22.413Z,1020.85
2017-06-14T04:00:31.619Z,1020.79
2017-06-14T04:01:40.504Z,1020.81
2017-06-14T04:02:49.966Z,1020.75
2017-06-14T04:03:58.851Z,1020.8
2017-06-14T04:05:07.769Z,1020.88
2017-06-14T04:06:16.657Z,1020.91
2017-06-14T04:07:26.194Z,1020.92
2017-06-14T04:08:35.184Z,1020.93
2017-06-14T04:09:44.072Z,1020.84
2017-06-14T04:10:53.284Z,1020.82
2017-06-14T04:12:02.498Z,1020.89
2017-06-14T04:13:11.389Z,1020.85
2017-06-14T04:14:20.324Z,1020.89
2017-06-14T04:15:30.180Z,1020.97
2017-06-14T04:16:39.066Z,1021.03
2017-06-14T04:17:47.950Z,1021.01
2017-06-14T04:18:57.157Z,1021.05
2017-06-14T04:20:06.039Z,1021.01
2017-06-14T04:21:15.270Z,1021.04
2017-06-14T04:22:24.160Z,1021.02
2017-06-14T04:23:33.079Z,1021.02
2017-06-14T04:24:42.615Z,1021.02
2017-06-14T04:25:51.498Z,1021.09
2017-06-14T04:27:00.381Z,1021.12
2017-06-14T04:28:09.591Z,1021.18
2017-06-14T04:29:18.472Z,1021.18
2017-06-14T04:30:27.357Z,1021.23
2017-06-14T04:31:36.391Z,1021.19
2017-06-14T04:32:45.598Z,1021.25
2017-06-14T04:33:54.807Z,1021.28
2017-06-14T04:35:03.697Z,1021.28
2017-06-14T04:36:13.232Z,1021.27
2017-06-14T04:37:22.171Z,1021.28
2017-06-14T04:38:31.382Z,1021.33
2017-06-14T04:39:40.595Z,1021.33
2017-06-14T04:40:49.485Z,1021.41
2017-06-14T04:41:58.697Z,1021.47
2017-06-14T04:43:07.583Z,1021.46
2017-06-14T04:44:16.806Z,1021.46
2017-06-14T04:45:25.692Z,1021.42
2017-06-14T04:46:34.898Z,1021.42
2017-06-14T04:47:44.110Z,1021.4
2017-06-14T04:48:53.047Z,1021.39
2017-06-14T04:50:02.259Z,1021.34
2017-06-14T04:51:11.145Z,1021.33
2017-06-14T04:52:20.029Z,1021.29
2017-06-14T04:53:28.921Z,1021.36
2017-06-14T04:54:38.116Z,1021.31
2017-06-14T04:55:47.328Z,1021.3
2017-06-14T04:56:56.212Z,1021.26
2017-06-14T04:58:05.100Z,1021.26
2017-06-14T04:59:14.971Z,1021.26
2017-06-14T05:00:24.211Z,1021.31
2017-06-14T05:01:33.113Z,1021.39
2017-06-14T05:02:42.001Z,1021.42
2017-06-14T05:03:50.890Z,1021.41
2017-06-14T05:04:59.782Z,1021.44
2017-06-14T05:06:09.295Z,1021.48
2017-06-14T05:07:18.833Z,1021.53
2017-06-14T05:08:27.732Z,1021.5
2017-06-14T05:09:36.622Z,1021.46
2017-06-14T05:10:45.831Z,1021.45
2017-06-14T05:11:54.970Z,1021.42
2017-06-14T05:13:03.858Z,1021.37
2017-06-14T05:14:12.752Z,1021.34
2017-06-14T05:15:21.641Z,1021.37
2017-06-14T05:16:30.530Z,1021.43
2017-06-14T05:17:40.068Z,1021.38
2017-06-14T05:18:49.279Z,1021.44
2017-06-14T05:19:58.162Z,1021.4
2017-06-14T05:21:07.066Z,1021.38
2017-06-14T05:22:15.959Z,1021.39
2017-06-14T05:23:25.174Z,1021.36
2017-06-14T05:24:34.399Z,1021.34
2017-06-14T05:25:43.864Z,1021.32
2017-06-14T05:26:53.122Z,1021.31
2017-06-14T05:28:02.361Z,1021.35
2017-06-14T05:29:11.362Z,1021.3
2017-06-14T05:30:20.358Z,1021.29
2017-06-14T05:31:29.282Z,1021.26
2017-06-14T05:32:38.496Z,1021.2
2017-06-14T05:33:47.711Z,1021.15
2017-06-14T05:34:56.595Z,1021.16
2017-06-14T05:36:05.808Z,1021.15
2017-06-14T05:37:15.023Z,1021.25
2017-06-14T05:38:24.247Z,1021.25
2017-06-14T05:39:33.256Z,1021.27
2017-06-14T05:40:42.467Z,1021.3
2017-06-14T05:41:51.677Z,1021.35
2017-06-14T05:43:00.565Z,1021.34
2017-06-14T05:44:09.456Z,1021.37
2017-06-14T05:45:18.895Z,1021.34
2017-06-14T05:46:27.805Z,1021.36
2017-06-14T05:47:36.694Z,1021.39
2017-06-14T05:48:46.059Z,1021.44
2017-06-14T05:49:54.949Z,1021.45
2017-06-14T05:51:04.170Z,1021.48
2017-06-14T05:52:13.072Z,1021.48
2017-06-14T05:53:21.972Z,1021.51
2017-06-14T05:54:30.886Z,1021.58
2017-06-14T05:55:39.783Z,1021.56
2017-06-14T05:56:48.767Z,1021.59
2017-06-14T05:57:57.658Z,1021.57
2017-06-14T05:59:06.545Z,1021.54
2017-06-14T06:00:15.436Z,1021.51
2017-06-14T06:01:24.328Z,1021.55
2017-06-14T06:02:33.543Z,1021.57
2017-06-14T06:03:42.430Z,1021.63
2017-06-14T06:04:51.645Z,1021.67
2017-06-14T06:06:00.535Z,1021.75
2017-06-14T06:07:09.426Z,1021.77
2017-06-14T06:08:18.638Z,1021.75
2017-06-14T06:09:27.535Z,1021.7
2017-06-14T06:10:37.412Z,1021.65
2017-06-14T06:11:46.955Z,1021.62
2017-06-14T06:12:55.845Z,1021.62
2017-06-14T06:14:04.764Z,1021.62
2017-06-14T06:15:13.656Z,1021.54
2017-06-14T06:16:22.872Z,1021.56
2017-06-14T06:17:31.763Z,1021.6
2017-06-14T06:18:40.980Z,1021.63
2017-06-14T06:19:50.345Z,1021.66
2017-06-14T06:20:59.237Z,1021.65
2017-06-14T06:22:08.125Z,1021.69
2017-06-14T06:23:17.667Z,1021.68
2017-06-14T06:24:26.878Z,1021.65
2017-06-14T06:25:36.016Z,1021.62
2017-06-14T06:26:44.924Z,1021.61
2017-06-14T06:27:53.820Z,1021.6
2017-06-14T06:29:02.733Z,1021.61
2017-06-14T06:30:11.968Z,1021.63
2017-06-14T06:31:21.159Z,1021.62
2017-06-14T06:32:30.391Z,1021.57
2017-06-14T06:33:39.609Z,1021.6
2017-06-14T06:34:48.827Z,1021.64
2017-06-14T06:35:57.714Z,1021.62
2017-06-14T06:37:07.090Z,1021.65
2017-06-14T06:38:15.991Z,1021.67
2017-06-14T06:39:25.227Z,1021.7
2017-06-14T06:40:34.140Z,1021.65
2017-06-14T06:41:43.034Z,1021.61
2017-06-14T06:42:52.258Z,1021.64
2017-06-14T06:44:01.190Z,1021.68
2017-06-14T06:45:10.097Z,1021.64
2017-06-14T06:46:19.043Z,1021.64
2017-06-14T06:47:27.944Z,1021.68
2017-06-14T06:48:36.885Z,1021.66
2017-06-14T06:49:46.112Z,1021.75
2017-06-14T06:50:55.004Z,1021.72
2017-06-14T06:52:04.215Z,1021.75
2017-06-14T06:53:13.116Z,1021.73
2017-06-14T06:54:22.561Z,1021.73
2017-06-14T06:55:31.456Z,1021.73
2017-06-14T06:56:40.344Z,1021.72
2017-06-14T06:57:49.234Z,1021.74
2017-06-14T06:58:58.459Z,1021.76
2017-06-14T07:00:07.600Z,1021.76
2017-06-14T07:01:16.836Z,1021.77
2017-06-14T07:02:26.082Z,1021.68
2017-06-14T07:03:35.016Z,1021.73
2017-06-14T07:04:44.291Z,1021.73
2017-06-14T07:05:53.933Z,1021.71
2017-06-14T07:07:02.883Z,1021.77
2017-06-14T07:08:11.789Z,1021.79
2017-06-14T07:09:20.694Z,1021.77
2017-06-14T07:10:29.590Z,1021.75
2017-06-14T07:11:38.738Z,1021.74
2017-06-14T07:12:47.665Z,1021.75
2017-06-14T07:13:56.564Z,1021.75
2017-06-14T07:15:05.504Z,1021.76
2017-06-14T07:16:14.452Z,1021.81
2017-06-14T07:17:23.821Z,1021.82
2017-06-14T07:18:32.711Z,1021.76
2017-06-14T07:19:41.614Z,1021.84
2017-06-14T07:20:50.556Z,1021.77
2017-06-14T07:21:59.485Z,1021.72
2017-06-14T07:23:08.888Z,1021.7
2017-06-14T07:24:18.161Z,1021.7
2017-06-14T07:25:27.393Z,1021.63
2017-06-14T07:26:36.348Z,1021.66
2017-06-14T07:27:45.402Z,1021.72
2017-06-14T07:28:55.363Z,1021.71
2017-06-14T07:30:04.272Z,1021.64
2017-06-14T07:31:13.196Z,1021.65
2017-06-14T07:32:22.110Z,1021.62
2017-06-14T07:33:31.044Z,1021.63
2017-06-14T07:34:40.284Z,1021.59
2017-06-14T07:35:49.228Z,1021.65
2017-06-14T07:36:58.167Z,1021.64
2017-06-14T07:38:07.093Z,1021.69
2017-06-14T07:39:16.422Z,1021.67
2017-06-14T07:40:25.753Z,1021.66
2017-06-14T07:41:34.672Z,1021.7
2017-06-14T07:42:43.921Z,1021.72
2017-06-14T07:43:52.874Z,1021.68
2017-06-14T07:45:02.162Z,1021.67
2017-06-14T07:46:11.608Z,1021.69
2017-06-14T07:47:20.991Z,1021.68
2017-06-14T07:48:29.982Z,1021.71
2017-06-14T07:49:39.228Z,1021.68
2017-06-14T07:50:48.185Z,1021.7
2017-06-14T07:51:57.224Z,1021.67
2017-06-14T07:53:06.267Z,1021.66
2017-06-14T07:54:15.539Z,1021.65
2017-06-14T07:55:25.302Z,1021.71
2017-06-14T07:56:34.390Z,1021.75
2017-06-14T07:57:43.595Z,1021.75
2017-06-14T07:58:52.516Z,1021.75
2017-06-14T08:00:01.528Z,1021.76
2017-06-14T08:01:10.614Z,1021.76
2017-06-14T08:02:19.589Z,1021.8
2017-06-14T08:03:29.575Z,1021.78
2017-06-14T08:04:38.874Z,1021.76
2017-06-14T08:05:47.857Z,1021.76
2017-06-14T08:06:56.768Z,1021.75
2017-06-14T08:08:05.841Z,1021.72
2017-06-14T08:09:15.174Z,1021.74
2017-06-14T08:10:24.455Z,1021.75
2017-06-14T08:11:33.709Z,1021.72
2017-06-14T08:12:42.606Z,1021.67
2017-06-14T08:13:51.832Z,1021.66
2017-06-14T08:15:00.832Z,1021.64
2017-06-14T08:16:09.776Z,1021.62
2017-06-14T08:17:18.692Z,1021.64
2017-06-14T08:18:27.588Z,1021.66
2017-06-14T08:19:36.805Z,1021.68
2017-06-14T08:20:45.707Z,1021.66
2017-06-14T08:21:54.922Z,1021.65
2017-06-14T08:23:04.149Z,1021.64
2017-06-14T08:24:13.046Z,1021.6
2017-06-14T08:25:21.943Z,1021.58
2017-06-14T08:26:31.117Z,1021.59
2017-06-14T08:27:40.016Z,1021.54
2017-06-14T08:28:49.239Z,1021.52
2017-06-14T08:29:58.137Z,1021.46
2017-06-14T08:31:07.432Z,1021.45
2017-06-14T08:32:16.942Z,1021.44
2017-06-14T08:33:26.541Z,1021.46
2017-06-14T08:34:35.478Z,1021.49
2017-06-14T08:35:44.394Z,1021.48
2017-06-14T08:36:53.333Z,1021.46
2017-06-14T08:38:02.863Z,1021.48
2017-06-14T08:39:11.763Z,1021.47
2017-06-14T08:40:20.675Z,1021.5
2017-06-14T08:41:29.897Z,1021.44
2017-06-14T08:42:38.822Z,1021.48
2017-06-14T08:43:48.547Z,1021.5
2017-06-14T08:44:57.449Z,1021.49
2017-06-14T08:46:06.707Z,1021.5
2017-06-14T08:47:15.943Z,1021.65
2017-06-14T08:48:25.179Z,1021.59
2017-06-14T08:49:34.448Z,1021.59
2017-06-14T08:50:43.343Z,1021.57
2017-06-14T08:51:52.236Z,1021.57
2017-06-14T08:53:01.134Z,1021.55
2017-06-14T08:54:10.679Z,1021.57
2017-06-14T08:55:19.747Z,1021.57
2017-06-14T08:56:28.641Z,1021.64
2017-06-14T08:57:37.543Z,1021.66
2017-06-14T08:58:46.763Z,1021.71
2017-06-14T08:59:55.662Z,1021.64
2017-06-14T09:01:05.202Z,1021.6
2017-06-14T09:02:14.104Z,1021.63
2017-06-14T09:03:23.653Z,1021.65
2017-06-14T09:04:32.875Z,1021.64
2017-06-14T09:05:42.105Z,1021.63
2017-06-14T09:06:51.052Z,1021.66
2017-06-14T09:08:00.271Z,1021.65
2017-06-14T09:09:09.517Z,1021.62
2017-06-14T09:10:18.412Z,1021.59
2017-06-14T09:11:27.651Z,1021.6
2017-06-14T09:12:36.614Z,1021.6
2017-06-14T09:13:45.838Z,1021.54
2017-06-14T09:14:55.427Z,1021.52
2017-06-14T09:16:04.317Z,1021.54
2017-06-14T09:17:13.535Z,1021.54
2017-06-14T09:18:22.540Z,1021.54
2017-06-14T09:19:31.490Z,1021.58
2017-06-14T09:20:40.386Z,1021.6
2017-06-14T09:21:49.634Z,1021.56
2017-06-14T09:22:58.863Z,1021.59
2017-06-14T09:24:08.227Z,1021.56
2017-06-14T09:25:18.153Z,1021.56
2017-06-14T09:26:27.047Z,1021.54
2017-06-14T09:27:36.594Z,1021.48
2017-06-14T09:28:45.493Z,1021.48
2017-06-14T09:29:54.964Z,1021.55
2017-06-14T09:31:03.857Z,1021.54
2017-06-14T09:32:13.134Z,1021.56
2017-06-14T09:33:22.027Z,1021.48
2017-06-14T09:34:30.916Z,1021.54
2017-06-14T09:35:40.182Z,1021.54
2017-06-14T09:36:49.077Z,1021.6
2017-06-14T09:37:57.967Z,1021.56
2017-06-14T09:39:07.188Z,1021.54
2017-06-14T09:40:16.421Z,1021.56
2017-06-14T09:41:25.417Z,1021.62
2017-06-14T09:42:34.310Z,1021.6
2017-06-14T09:43:43.525Z,1021.57
2017-06-14T09:44:52.413Z,1021.51
2017-06-14T09:46:01.628Z,1021.51
2017-06-14T09:47:10.671Z,1021.56
2017-06-14T09:48:19.561Z,1021.51
2017-06-14T09:49:28.776Z,1021.57
2017-06-14T09:50:37.678Z,1021.52
2017-06-14T09:51:46.578Z,1021.54
2017-06-14T09:52:55.896Z,1021.49
2017-06-14T09:54:04.794Z,1021.48
2017-06-14T09:55:14.015Z,1021.49
2017-06-14T09:56:23.231Z,1021.44
2017-06-14T09:57:32.448Z,1021.48
2017-06-14T09:58:41.442Z,1021.45
2017-06-14T09:59:50.661Z,1021.46
2017-06-14T10:00:59.878Z,1021.46
2017-06-14T10:02:08.768Z,1021.51
2017-06-14T10:03:17.663Z,1021.45
2017-06-14T10:04:26.906Z,1021.4
2017-06-14T10:05:35.818Z,1021.43
2017-06-14T10:06:44.730Z,1021.41
2017-06-14T10:07:53.953Z,1021.42
2017-06-14T10:09:02.844Z,1021.48
2017-06-14T10:10:12.062Z,1021.51
2017-06-14T10:11:21.280Z,1021.52
2017-06-14T10:12:30.501Z,1021.43
2017-06-14T10:13:39.394Z,1021.44
2017-06-14T10:14:48.286Z,1021.39
2017-06-14T10:15:57.236Z,1021.38
2017-06-14T10:17:06.133Z,1021.39
2017-06-14T10:18:15.362Z,1021.38
2017-06-14T10:19:24.253Z,1021.4
2017-06-14T10:20:33.467Z,1021.38
2017-06-14T10:21:42.509Z,1021.38
2017-06-14T10:22:51.402Z,1021.41
2017-06-14T10:24:00.945Z,1021.38
2017-06-14T10:25:09.841Z,1021.37
2017-06-14T10:26:18.741Z,1021.37
2017-06-14T10:27:27.684Z,1021.36
2017-06-14T10:28:36.899Z,1021.38
2017-06-14T10:29:45.793Z,1021.4
2017-06-14T10:30:55.015Z,1021.4
2017-06-14T10:32:03.916Z,1021.35
2017-06-14T10:33:12.860Z,1021.3
2017-06-14T10:34:22.400Z,1021.3
2017-06-14T10:35:31.299Z,1021.31
2017-06-14T10:36:40.189Z,1021.29
2017-06-14T10:37:49.409Z,1021.34
2017-06-14T10:38:58.449Z,1021.29
2017-06-14T10:40:07.674Z,1021.35
2017-06-14T10:41:16.892Z,1021.33
2017-06-14T10:42:26.106Z,1021.31
2017-06-14T10:43:35.002Z,1021.29
2017-06-14T10:44:44.218Z,1021.21
2017-06-14T10:45:53.435Z,1021.21
2017-06-14T10:47:02.325Z,1021.19
2017-06-14T10:48:11.542Z,1021.16
2017-06-14T10:49:20.430Z,1021.14
2017-06-14T10:50:29.746Z,1021.12
2017-06-14T10:51:38.965Z,1021.14
2017-06-14T10:52:47.864Z,1021.13
2017-06-14T10:53:56.757Z,1021.12
2017-06-14T10:55:05.650Z,1021.13
2017-06-14T10:56:14.694Z,1021.12
2017-06-14T10:57:23.910Z,1021.14
2017-06-14T10:58:32.803Z,1021.1
2017-06-14T10:59:41.696Z,1021.07
2017-06-14T11:00:50.920Z,1021.07
2017-06-14T11:02:00.287Z,1021.05
2017-06-14T11:03:09.185Z,1021
2017-06-14T11:04:18.402Z,1021.03
2017-06-14T11:05:27.627Z,1021.03
2017-06-14T11:06:36.517Z,1020.98
2017-06-14T11:07:45.408Z,1021
2017-06-14T11:08:54.304Z,1020.96
2017-06-14T11:10:03.523Z,1020.96
2017-06-14T11:11:12.423Z,1020.94
2017-06-14T11:12:21.636Z,1020.95
2017-06-14T11:13:31.326Z,1020.97
2017-06-14T11:14:40.543Z,1021
2017-06-14T11:15:50.089Z,1020.98
2017-06-14T11:16:58.986Z,1020.97
2017-06-14T11:18:07.884Z,1021.02
2017-06-14T11:19:16.926Z,1021.01
2017-06-14T11:20:25.822Z,1021.01
2017-06-14T11:21:34.719Z,1020.98
2017-06-14T11:22:44.265Z,1020.99
2017-06-14T11:23:53.812Z,1020.97
2017-06-14T11:25:03.513Z,1020.96
2017-06-14T11:26:12.732Z,1020.94
2017-06-14T11:27:21.628Z,1020.93
2017-06-14T11:28:30.846Z,1020.94
2017-06-14T11:29:39.738Z,1020.96
2017-06-14T11:30:49.108Z,1020.97
2017-06-14T11:31:58.002Z,1020.94
2017-06-14T11:33:06.899Z,1020.92
2017-06-14T11:34:16.443Z,1020.95
2017-06-14T11:35:25.347Z,1020.93
2017-06-14T11:36:34.342Z,1020.9
2017-06-14T11:37:43.236Z,1020.94
2017-06-14T11:38:52.129Z,1020.95
2017-06-14T11:40:01.360Z,1020.94
2017-06-14T11:41:10.587Z,1020.94
2017-06-14T11:42:20.010Z,1020.96
2017-06-14T11:43:28.904Z,1020.97
2017-06-14T11:44:38.127Z,1020.97
2017-06-14T11:45:47.020Z,1020.95
2017-06-14T11:46:55.917Z,1020.95
2017-06-14T11:48:04.869Z,1020.93
2017-06-14T11:49:13.765Z,1020.96
2017-06-14T11:50:22.990Z,1020.99
2017-06-14T11:51:31.885Z,1020.94
2017-06-14T11:52:41.431Z,1020.99
2017-06-14T11:53:50.326Z,1021
2017-06-14T11:54:59.221Z,1021.03
2017-06-14T11:56:08.116Z,1021.06
2017-06-14T11:57:17.011Z,1021.01
2017-06-14T11:58:25.908Z,1020.99
2017-06-14T11:59:34.838Z,1021.02
2017-06-14T12:00:43.737Z,1021.05
2017-06-14T12:01:53.108Z,1020.95
2017-06-14T12:03:02.005Z,1020.98
2017-06-14T12:04:10.903Z,1020.97
2017-06-14T12:05:20.707Z,1021.02
2017-06-14T12:06:29.607Z,1020.96
2017-06-14T12:07:39.158Z,1020.97
2017-06-14T12:08:48.062Z,1020.93
2017-06-14T12:09:57.289Z,1021
2017-06-14T12:11:06.344Z,1020.99
2017-06-14T12:12:15.242Z,1021.03
2017-06-14T12:13:24.143Z,1021.04
2017-06-14T12:14:33.048Z,1021.03
2017-06-14T12:15:42.275Z,1021.01
2017-06-14T12:16:51.656Z,1021.09
2017-06-14T12:18:00.562Z,1021
2017-06-14T12:19:09.472Z,1020.99
2017-06-14T12:20:18.376Z,1020.97
2017-06-14T12:21:27.607Z,1020.95
2017-06-14T12:22:37.470Z,1020.97
2017-06-14T12:23:46.731Z,1020.92
2017-06-14T12:24:55.955Z,1020.94
2017-06-14T12:26:05.514Z,1020.92
2017-06-14T12:27:14.423Z,1020.98
2017-06-14T12:28:23.803Z,1020.93
2017-06-14T12:29:32.708Z,1020.94
2017-06-14T12:30:41.935Z,1020.95
2017-06-14T12:31:50.837Z,1020.92
2017-06-14T12:32:59.748Z,1020.91
2017-06-14T12:34:08.807Z,1020.91
2017-06-14T12:35:17.708Z,1020.88
2017-06-14T12:36:26.619Z,1021.02
2017-06-14T12:37:35.518Z,1020.95
2017-06-14T12:38:44.418Z,1020.91
2017-06-14T12:39:53.367Z,1021.04
2017-06-14T12:41:02.274Z,1021.04
2017-06-14T12:42:11.179Z,1021.04
2017-06-14T12:43:20.411Z,1021.04
2017-06-14T12:44:29.335Z,1021
2017-06-14T12:45:38.340Z,1020.96
2017-06-14T12:46:47.572Z,1020.92
2017-06-14T12:47:56.493Z,1020.99
2017-06-14T12:49:05.730Z,1021.07
2017-06-14T12:50:14.647Z,1021.05
2017-06-14T12:51:24.331Z,1021.08
2017-06-14T12:52:33.239Z,1021.05
2017-06-14T12:53:42.171Z,1021.08
2017-06-14T12:54:51.422Z,1021.07
2017-06-14T12:56:00.692Z,1021.14
2017-06-14T12:57:09.653Z,1021.13
2017-06-14T12:58:19.234Z,1021.15
2017-06-14T12:59:28.472Z,1021.17
2017-06-14T13:00:38.036Z,1021.15
2017-06-14T13:01:47.016Z,1021.09
2017-06-14T13:02:56.307Z,1021.08
2017-06-14T13:04:05.544Z,1021.09
2017-06-14T13:05:14.455Z,1021.12
2017-06-14T13:06:23.371Z,1021.06
2017-06-14T13:07:32.282Z,1021.07
2017-06-14T13:08:41.244Z,1021.1
2017-06-14T13:09:50.156Z,1021.12
2017-06-14T13:10:59.071Z,1021.08
2017-06-14T13:12:08.306Z,1021.07
2017-06-14T13:13:17.220Z,1021.11
2017-06-14T13:14:26.861Z,1021.02
2017-06-14T13:15:35.786Z,1021.02
2017-06-14T13:16:44.748Z,1021.06
2017-06-14T13:17:53.667Z,1021.09
2017-06-14T13:19:03.231Z,1021.04
2017-06-14T13:20:12.302Z,1021.08
2017-06-14T13:21:21.241Z,1021.1
2017-06-14T13:22:30.160Z,1021.14
2017-06-14T13:23:39.078Z,1020.97
2017-06-14T13:24:47.990Z,1020.88
2017-06-14T13:25:57.050Z,1020.92
2017-06-14T13:27:05.962Z,1020.85
2017-06-14T13:28:14.871Z,1020.82
2017-06-14T13:29:23.782Z,1020.84
2017-06-14T13:30:32.689Z,1020.86
2017-06-14T13:31:42.076Z,1020.86
2017-06-14T13:32:51.308Z,1020.83
2017-06-14T13:34:00.538Z,1020.82
2017-06-14T13:35:09.446Z,1020.87
2017-06-14T13:36:18.682Z,1020.84
2017-06-14T13:37:27.735Z,1020.9
2017-06-14T13:38:36.971Z,1020.85
2017-06-14T13:39:45.878Z,1020.82
2017-06-14T13:40:54.787Z,1020.94
2017-06-14T13:42:03.697Z,1021.1
2017-06-14T13:43:12.749Z,1021.14
2017-06-14T13:44:21.656Z,1021.08
2017-06-14T13:45:30.884Z,1021.07
2017-06-14T13:46:40.438Z,1021.08
2017-06-14T13:47:49.678Z,1021.01
2017-06-14T13:48:58.591Z,1021.01
2017-06-14T13:50:08.152Z,1020.98
2017-06-14T13:51:17.064Z,1021.05
2017-06-14T13:52:26.316Z,1021.11
2017-06-14T13:53:35.225Z,1021.09
2017-06-14T13:54:44.246Z,1021.12
2017-06-14T13:55:53.483Z,1021.07
2017-06-14T13:57:02.396Z,1021.16
2017-06-14T13:58:11.332Z,1021.16
2017-06-14T13:59:20.898Z,1021.1